Time;durP1;ratioP1;P1;durP2;ratioP2;P2;SDS_P1;SDS_P2;PMS_P1;PMS_P2;Temp;Humidity;BMP_temperature;BMP_pressure;BME280_temperature;BME280_humidity;BME280_pressure;Samples;Min_cycle;Max_cycle;Signal;HPM_P1;HPM_P2
2021/12/24 00:01:19;;;;;;;9.90;7.07;;;;;;;4.48;68.13;98400.22;5010986;28;20275;-65
2021/12/24 00:03:47;;;;;;;8.90;7.20;;;;;;;4.20;69.56;98409.47;5010224;28;20212;-65
2021/12/24 00:06:15;;;;;;;11.93;8.33;;;;;;;4.71;67.86;98395.09;5007973;28;20220;-65
2021/12/24 00:08:49;;;;;;;11.60;7.67;;;;;;;4.49;68.48;98401.91;5015840;28;20220;-65
2021/12/24 00:11:17;;;;;;;10.67;7.63;;;;;;;4.72;68.46;98396.75;5015858;28;20206;-66
2021/12/24 00:13:47;;;;;;;10.50;7.77;;;;;;;4.69;68.34;98380.44;5012054;28;20696;-65
2021/12/24 00:16:30;;;;;;;10.67;6.57;;;;;;;5.09;66.66;98368.13;5008924;28;20201;-65
2021/12/24 00:19:12;;;;;;;11.57;7.33;;;;;;;4.67;68.25;98369.19;5016948;28;20222;-66
2021/12/24 00:35:47;;;;;;;7.90;6.87;;;;;;;4.89;67.96;98386.19;5010836;28;20200;-65
2021/12/24 00:38:21;;;;;;;10.97;7.07;;;;;;;4.93;67.64;98391.97;5014975;28;20652;-66
2021/12/24 00:40:48;;;;;;;9.57;7.20;;;;;;;4.76;68.11;98385.88;5029929;28;20216;-65
2021/12/24 00:43:16;;;;;;;10.13;7.43;;;;;;;4.73;68.56;98387.00;5003231;28;20198;-65
2021/12/24 00:45:50;;;;;;;11.47;7.20;;;;;;;5.16;67.46;98395.53;5010311;28;20204;-66
2021/12/24 00:48:19;;;;;;;11.33;7.40;;;;;;;5.39;65.98;98381.56;5009188;28;20610;-65
2021/12/24 00:51:07;;;;;;;12.70;8.60;;;;;;;4.79;67.99;98373.16;5010515;28;20211;-66
2021/12/24 00:56:15;;;;;;;13.27;8.20;;;;;;;4.86;68.16;98373.28;5009934;28;20205;-65
2021/12/24 00:58:44;;;;;;;11.40;8.20;;;;;;;5.01;67.92;98368.16;5010112;28;20214;-66
2021/12/24 01:01:18;;;;;;;13.93;9.77;;;;;;;5.53;66.04;98380.00;5007962;28;20197;-65
2021/12/24 01:03:52;;;;;;;12.97;9.10;;;;;;;4.97;67.42;98372.94;4995058;28;20202;-65
2021/12/24 01:06:19;;;;;;;14.23;9.13;;;;;;;5.03;67.49;98371.47;5009553;28;20216;-65
2021/12/24 01:08:46;;;;;;;12.57;8.27;;;;;;;5.00;67.14;98361.22;4993961;28;20221;-65
2021/12/24 01:11:20;;;;;;;10.57;8.33;;;;;;;4.94;67.76;98365.38;5010346;28;20223;-65
2021/12/24 01:13:47;;;;;;;12.40;8.70;;;;;;;4.71;68.42;98368.69;5010062;28;20202;-65
2021/12/24 01:16:28;;;;;;;10.57;7.97;;;;;;;4.87;67.78;98367.84;5002522;28;20202;-65
2021/12/24 01:19:07;;;;;;;10.47;7.73;;;;;;;5.09;67.58;98373.41;4991142;28;20220;-65
2021/12/24 01:21:54;;;;;;;11.03;7.30;;;;;;;4.75;68.20;98368.34;5010425;28;20683;-65
2021/12/24 01:24:35;;;;;;;11.60;8.33;;;;;;;4.93;67.97;98371.66;5010022;28;20211;-65
2021/12/24 01:30:08;;;;;;;11.27;8.00;;;;;;;5.18;67.71;98369.75;5010150;28;20780;-65
2021/12/24 01:43:27;;;;;;;12.93;8.00;;;;;;;4.99;67.95;98370.13;5008545;28;20605;-63
2021/12/24 01:45:57;;;;;;;9.67;6.57;;;;;;;4.80;67.98;98368.69;5002929;28;20236;-63
2021/12/24 01:48:24;;;;;;;12.57;7.53;;;;;;;4.80;68.71;98387.97;5008247;28;20226;-63
2021/12/24 01:50:54;;;;;;;15.30;8.20;;;;;;;5.03;67.20;98376.75;5001110;28;20232;-63
2021/12/24 01:53:23;;;;;;;11.47;6.87;;;;;;;4.91;68.17;98365.72;5009149;28;20232;-63
2021/12/24 01:55:52;;;;;;;9.93;7.53;;;;;;;4.95;68.03;98369.66;5005976;28;20233;-63
2021/12/24 01:58:21;;;;;;;11.93;8.33;;;;;;;5.11;67.56;98363.50;5008233;28;20228;-63
2021/12/24 02:00:52;;;;;;;11.37;8.03;;;;;;;4.98;68.92;98369.31;5003271;28;20229;-63
2021/12/24 02:03:19;;;;;;;11.07;7.30;;;;;;;4.76;69.37;98365.56;4980978;28;20231;-63
2021/12/24 02:05:48;;;;;;;11.13;7.63;;;;;;;4.81;69.14;98367.69;5004953;28;20224;-63
2021/12/24 02:08:16;;;;;;;9.67;7.00;;;;;;;5.27;67.75;98373.19;4987325;28;20225;-63
2021/12/24 02:10:44;;;;;;;10.77;7.17;;;;;;;5.32;67.68;98355.00;5003003;28;20231;-63
2021/12/24 02:13:13;;;;;;;13.50;8.33;;;;;;;4.94;68.40;98340.75;5007868;28;20227;-63
2021/12/24 02:29:12;;;;;;;10.00;7.33;;;;;;;5.72;67.13;98342.53;5003206;28;20232;-63
2021/12/24 02:31:39;;;;;;;10.77;7.90;;;;;;;5.51;67.29;98329.13;5007576;28;20221;-63
2021/12/24 02:34:06;;;;;;;10.07;7.57;;;;;;;5.55;67.09;98327.78;5007062;28;20239;-63
2021/12/24 02:36:35;;;;;;;11.20;7.17;;;;;;;5.79;66.42;98324.97;4997285;28;20233;-63
2021/12/24 02:39:04;;;;;;;10.87;6.63;;;;;;;5.44;67.44;98323.69;5001209;28;20234;-63
2021/12/24 02:41:31;;;;;;;9.03;7.17;;;;;;;5.98;65.51;98315.72;5006882;28;20728;-63
2021/12/24 02:43:58;;;;;;;10.97;7.67;;;;;;;5.52;66.70;98315.72;5007601;28;20623;-63
2021/12/24 02:46:32;;;;;;;11.47;8.07;;;;;;;5.34;67.48;98315.16;5001766;28;20273;-63
2021/12/24 02:49:07;;;;;;;11.20;7.60;;;;;;;5.69;66.82;98327.03;5004637;28;21442;-62
2021/12/24 02:54:22;;;;;;;11.40;7.17;;;;;;;5.44;67.58;98321.03;5007648;28;20622;-63
2021/12/24 02:56:52;;;;;;;10.40;7.50;;;;;;;5.57;66.77;98310.72;5004431;28;20603;-63
2021/12/24 02:59:26;;;;;;;12.60;7.90;;;;;;;5.67;66.93;98313.16;5003167;28;20923;-63
2021/12/24 03:01:55;;;;;;;10.17;7.17;;;;;;;5.50;67.22;98304.50;5001716;28;20226;-63
2021/12/24 03:04:22;;;;;;;9.90;6.73;;;;;;;5.34;67.59;98299.28;4987686;28;20636;-63
2021/12/24 03:06:51;;;;;;;11.33;7.57;;;;;;;5.30;67.60;98298.81;5003200;28;20237;-63
2021/12/24 03:09:21;;;;;;;9.43;6.70;;;;;;;5.40;67.49;98298.59;4996951;28;20955;-63
2021/12/24 03:11:51;;;;;;;11.83;7.80;;;;;;;6.01;66.30;98306.63;5005198;28;20229;-63
2021/12/24 03:14:19;;;;;;;9.70;7.27;;;;;;;5.94;65.89;98295.91;5003382;28;20221;-63
2021/12/24 03:16:55;;;;;;;9.83;7.20;;;;;;;5.03;67.29;98290.34;4990993;28;20228;-63
2021/12/24 03:19:26;;;;;;;11.17;7.43;;;;;;;5.36;67.81;98300.78;4988266;28;20221;-63
2021/12/24 03:21:59;;;;;;;13.33;7.83;;;;;;;5.68;66.82;98300.75;5006877;28;20225;-63
2021/12/24 03:26:53;;;;;;;11.77;8.07;;;;;;;5.70;66.96;98288.16;5005552;28;20232;-63
2021/12/24 03:29:20;;;;;;;10.03;7.20;;;;;;;5.74;67.16;98284.97;5007049;28;20229;-64
2021/12/24 03:31:47;;;;;;;10.47;7.57;;;;;;;4.88;68.42;98286.75;5000593;28;20256;-63
2021/12/24 03:34:17;;;;;;;9.97;6.53;;;;;;;5.04;70.01;98304.38;4999455;28;20955;-63
2021/12/24 03:36:45;;;;;;;9.87;6.93;;;;;;;6.05;66.27;98278.78;5005971;28;20259;-63
2021/12/24 03:39:13;;;;;;;11.83;7.67;;;;;;;6.08;66.05;98269.66;5000972;28;20782;-63
2021/12/24 03:41:40;;;;;;;11.43;7.27;;;;;;;6.17;65.80;98274.72;5006820;28;20231;-63
2021/12/24 03:44:09;;;;;;;10.30;7.73;;;;;;;5.55;67.84;98288.09;5007071;28;20221;-64
2021/12/24 03:47:05;;;;;;;9.63;7.20;;;;;;;6.14;66.03;98267.13;4988106;28;20267;-63
2021/12/24 03:54:57;;;;;;;11.00;6.80;;;;;;;6.01;66.60;98266.91;5010612;28;20228;-63
2021/12/24 03:57:24;;;;;;;12.67;7.50;;;;;;;5.53;67.57;98260.97;4991171;28;20226;-64
2021/12/24 03:59:52;;;;;;;8.87;7.10;;;;;;;5.67;67.82;98262.06;4997065;28;20225;-63
2021/12/24 04:02:19;;;;;;;9.30;7.23;;;;;;;6.03;66.35;98249.03;5005791;28;20227;-63
2021/12/24 04:04:47;;;;;;;10.80;7.43;;;;;;;5.83;66.61;98254.81;5007600;28;20229;-64
2021/12/24 04:07:15;;;;;;;11.27;6.50;;;;;;;4.40;70.90;98270.03;4991757;28;20225;-63
2021/12/24 04:09:49;;;;;;;9.37;7.23;;;;;;;3.79;73.75;98292.38;5007883;28;20232;-63
2021/12/24 04:12:16;;;;;;;11.03;7.90;;;;;;;4.97;71.02;98282.28;4993214;28;20591;-63
2021/12/24 04:14:43;;;;;;;11.70;7.07;;;;;;;4.64;70.03;98267.34;5009249;28;20233;-63
2021/12/24 04:17:10;;;;;;;9.30;6.50;;;;;;;4.29;72.59;98295.00;5006410;28;20217;-63
2021/12/24 04:24:52;;;;;;;11.20;7.50;;;;;;;6.20;65.96;98252.34;5008315;28;20231;-63
2021/12/24 04:27:21;;;;;;;9.83;7.17;;;;;;;6.16;66.59;98256.34;5009184;28;20226;-63
2021/12/24 04:29:49;;;;;;;10.47;6.93;;;;;;;6.30;65.70;98254.72;5009480;28;20230;-64
2021/12/24 04:32:20;;;;;;;10.40;7.70;;;;;;;6.05;65.87;98238.25;5001971;28;20606;-63
2021/12/24 04:34:50;;;;;;;10.53;7.43;;;;;;;5.88;66.82;98242.88;5002052;28;20226;-63
2021/12/24 04:50:58;;;;;;;10.13;7.53;;;;;;;4.21;71.25;98265.97;5006309;28;20611;-63
2021/12/24 05:04:49;;;;;;;9.60;6.57;;;;;;;4.21;71.63;98258.84;4974615;28;20243;-63
2021/12/24 05:09:49;;;;;;;9.33;6.07;;;;;;;5.51;69.00;98245.28;5002475;28;20234;-63
2021/12/24 05:12:16;;;;;;;9.23;6.50;;;;;;;5.68;67.59;98226.66;4996201;28;20597;-63
2021/12/24 05:14:43;;;;;;;8.47;6.97;;;;;;;5.69;68.31;98236.25;4995983;28;20241;-63
2021/12/24 05:22:33;;;;;;;10.63;6.77;;;;;;;6.07;66.59;98226.50;4994585;28;20224;-64
2021/12/24 05:25:00;;;;;;;9.87;7.07;;;;;;;5.43;68.25;98232.16;4985684;28;20612;-64
2021/12/24 05:27:28;;;;;;;12.47;6.83;;;;;;;5.50;68.64;98245.50;5006655;28;20300;-63
2021/12/24 05:29:55;;;;;;;10.87;6.97;;;;;;;5.71;68.32;98253.56;4999705;28;20777;-63
2021/12/24 05:32:22;;;;;;;9.53;6.73;;;;;;;6.02;67.38;98244.75;5000366;28;20230;-63
2021/12/24 05:34:49;;;;;;;9.27;6.60;;;;;;;6.19;67.07;98250.72;4999438;28;20233;-63
2021/12/24 05:37:16;;;;;;;9.47;6.90;;;;;;;6.12;66.62;98245.31;4998658;28;20611;-64
2021/12/24 05:39:43;;;;;;;8.23;6.90;;;;;;;6.31;66.30;98251.09;4989440;28;20240;-64
2021/12/24 05:42:10;;;;;;;11.67;7.43;;;;;;;5.79;67.45;98235.00;5001313;28;20223;-63
2021/12/24 05:44:37;;;;;;;13.03;7.53;;;;;;;5.88;67.59;98242.88;4996424;28;20240;-63
2021/12/24 05:47:05;;;;;;;10.87;7.57;;;;;;;5.75;67.97;98227.59;4993422;28;20229;-63
2021/12/24 05:49:34;;;;;;;9.17;7.33;;;;;;;5.84;67.56;98226.53;4994261;28;20223;-64
2021/12/24 05:52:02;;;;;;;9.37;7.13;;;;;;;5.62;68.50;98236.94;4999085;28;20225;-63
2021/12/24 05:54:29;;;;;;;8.77;6.47;;;;;;;4.41;71.35;98238.19;4998227;28;20233;-64
2021/12/24 05:56:56;;;;;;;11.07;7.03;;;;;;;5.70;68.92;98241.38;5004089;28;20235;-64
2021/12/24 05:59:23;;;;;;;9.90;6.93;;;;;;;5.60;68.55;98249.53;4981180;28;20995;-63
2021/12/24 06:01:50;;;;;;;9.47;7.20;;;;;;;6.08;67.20;98240.56;4981783;28;20235;-63
2021/12/24 06:04:17;;;;;;;9.67;7.10;;;;;;;5.70;68.16;98237.88;5006758;28;20232;-63
2021/12/24 06:06:44;;;;;;;9.90;7.07;;;;;;;6.18;67.48;98244.56;5007487;28;20235;-63
2021/12/24 06:09:11;;;;;;;8.60;6.47;;;;;;;6.11;67.60;98234.91;4975012;28;20232;-63
2021/12/24 06:11:38;;;;;;;12.33;7.00;;;;;;;5.77;68.07;98221.13;5005181;28;20237;-63
2021/12/24 06:14:11;;;;;;;11.03;6.60;;;;;;;5.56;69.04;98242.94;4994742;28;20236;-63
2021/12/24 06:17:01;;;;;;;10.13;6.97;;;;;;;5.99;68.03;98245.91;5006136;28;20232;-63
2021/12/24 06:19:33;;;;;;;8.00;6.60;;;;;;;6.09;67.83;98247.50;4978508;28;20221;-63
2021/12/24 06:22:00;;;;;;;8.13;6.23;;;;;;;6.48;66.50;98242.00;5007042;28;20231;-63
2021/12/24 06:24:27;;;;;;;8.10;6.03;;;;;;;6.20;66.94;98249.69;5004625;28;20228;-63
2021/12/24 06:26:54;;;;;;;8.37;6.37;;;;;;;5.87;68.14;98257.94;4996140;28;20229;-63
2021/12/24 06:29:21;;;;;;;9.20;6.53;;;;;;;6.16;67.49;98248.41;5001178;28;20229;-63
2021/12/24 06:31:49;;;;;;;10.23;7.23;;;;;;;6.28;67.00;98249.63;5004837;28;20226;-63
2021/12/24 06:34:18;;;;;;;10.90;7.83;;;;;;;6.17;67.07;98232.34;4998962;28;20217;-64
2021/12/24 06:36:47;;;;;;;9.63;7.13;;;;;;;5.98;68.09;98238.16;5006308;28;20236;-64
2021/12/24 06:39:15;;;;;;;11.27;6.50;;;;;;;5.89;68.99;98257.75;4993165;28;20234;-63
2021/12/24 06:41:43;;;;;;;11.77;8.20;;;;;;;6.05;67.97;98251.50;4998924;28;20234;-64
2021/12/24 06:44:11;;;;;;;10.33;7.17;;;;;;;6.08;67.72;98235.25;5006798;28;20232;-63
2021/12/24 06:46:41;;;;;;;9.97;6.87;;;;;;;6.37;67.19;98237.97;5001698;28;20601;-63
2021/12/24 06:49:09;;;;;;;7.80;6.07;;;;;;;5.11;70.12;98226.06;5004101;28;20233;-63
2021/12/24 06:51:37;;;;;;;7.57;5.70;;;;;;;5.83;69.35;98238.94;4995128;28;21296;-63
2021/12/24 06:54:04;;;;;;;9.97;6.80;;;;;;;5.94;68.31;98242.16;4994932;28;20233;-63
2021/12/24 06:56:32;;;;;;;7.80;5.50;;;;;;;6.43;67.07;98241.72;5000742;28;20248;-63
2021/12/24 06:58:59;;;;;;;7.53;5.63;;;;;;;6.38;67.30;98250.19;4985161;28;20224;-63
2021/12/24 07:01:26;;;;;;;8.63;6.40;;;;;;;6.34;67.44;98238.34;5007455;28;20229;-63
2021/12/24 07:03:53;;;;;;;8.70;5.97;;;;;;;5.72;68.71;98249.13;5004880;28;20244;-64
2021/12/24 07:06:21;;;;;;;8.70;6.07;;;;;;;6.40;67.13;98247.38;4994501;28;20225;-63
2021/12/24 07:08:49;;;;;;;7.80;6.10;;;;;;;6.44;67.49;98248.66;4993898;28;20240;-63
2021/12/24 07:11:15;;;;;;;8.70;5.97;;;;;;;6.32;67.43;98231.56;4999566;28;20225;-64
2021/12/24 07:13:42;;;;;;;8.17;6.20;;;;;;;6.01;68.35;98248.38;5005903;28;20519;-63
2021/12/24 07:16:09;;;;;;;9.57;6.37;;;;;;;6.07;67.88;98242.38;5006738;28;20753;-63
2021/12/24 07:18:38;;;;;;;9.40;6.63;;;;;;;5.90;69.09;98247.00;4989680;28;20242;-63
2021/12/24 07:21:05;;;;;;;8.07;5.90;;;;;;;6.46;67.39;98246.66;4984436;28;20221;-63
2021/12/24 07:23:33;;;;;;;8.33;5.73;;;;;;;6.65;66.64;98242.63;5004419;28;20227;-63
2021/12/24 07:26:00;;;;;;;9.20;6.30;;;;;;;6.37;67.26;98235.34;5007920;28;20348;-64
2021/12/24 07:28:27;;;;;;;10.30;6.67;;;;;;;6.51;67.16;98227.56;5010056;28;20225;-63
2021/12/24 07:30:55;;;;;;;10.20;7.40;;;;;;;6.62;66.43;98226.28;5006554;28;20217;-64
2021/12/24 07:33:22;;;;;;;8.07;6.03;;;;;;;6.67;66.41;98227.34;4999857;28;20264;-63
2021/12/24 07:35:49;;;;;;;9.83;7.27;;;;;;;6.46;67.79;98237.88;5006812;28;20235;-63
2021/12/24 07:38:16;;;;;;;9.70;6.60;;;;;;;6.55;66.96;98229.66;5007738;28;20778;-63
2021/12/24 07:43:11;;;;;;;14.43;6.90;;;;;;;6.65;66.96;98232.03;5008211;28;20214;-67
2021/12/24 07:45:40;;;;;;;12.23;7.30;;;;;;;6.22;67.62;98223.84;5001737;28;20216;-66
2021/12/24 07:48:15;;;;;;;9.17;6.77;;;;;;;6.08;69.26;98249.31;5020106;28;20576;-66
2021/12/24 07:53:15;;;;;;;9.10;6.20;;;;;;;4.43;73.55;98259.16;5010635;28;20197;-67
2021/12/24 07:55:48;;;;;;;10.33;6.50;;;;;;;4.63;73.65;98262.22;5009770;28;20665;-66
2021/12/24 07:58:17;;;;;;;8.93;6.53;;;;;;;5.68;69.24;98229.31;5007703;28;20208;-66
2021/12/24 08:00:45;;;;;;;8.80;5.73;;;;;;;5.56;71.07;98250.88;5002087;28;20221;-67
2021/12/24 08:03:19;;;;;;;8.23;5.83;;;;;;;5.91;70.48;98248.63;5008049;28;20209;-66
2021/12/24 08:05:48;;;;;;;9.93;7.17;;;;;;;6.13;68.63;98235.53;5010023;28;20219;-66
2021/12/24 08:08:16;;;;;;;8.80;6.30;;;;;;;6.39;68.23;98224.56;5013320;28;20200;-66
2021/12/24 08:10:49;;;;;;;9.23;6.40;;;;;;;6.43;67.86;98222.38;5018782;28;20229;-69
2021/12/24 08:13:19;;;;;;;8.43;5.77;;;;;;;6.16;68.31;98221.94;4999076;28;20212;-69
2021/12/24 08:15:49;;;;;;;8.90;6.03;;;;;;;5.61;70.98;98245.91;5008071;28;20201;-70
2021/12/24 08:18:23;;;;;;;8.97;6.27;;;;;;;6.24;68.49;98223.66;5012795;28;20706;-68
2021/12/24 08:20:50;;;;;;;32.77;23.47;;;;;;;6.61;67.50;98214.03;5010054;28;20210;-68
2021/12/24 08:23:17;;;;;;;9.93;6.67;;;;;;;6.12;68.32;98207.41;5015947;28;20210;-68
2021/12/24 08:25:58;;;;;;;8.77;6.50;;;;;;;6.26;69.17;98225.16;5001683;28;20207;-68
2021/12/24 08:28:26;;;;;;;9.53;6.60;;;;;;;6.62;67.94;98224.44;5017540;28;20532;-68
2021/12/24 08:30:59;;;;;;;10.23;6.87;;;;;;;6.60;67.51;98209.75;5016913;28;20257;-70
2021/12/24 08:33:26;;;;;;;11.77;7.57;;;;;;;6.63;67.88;98222.63;5010283;28;20221;-69
2021/12/24 08:35:54;;;;;;;11.77;6.83;;;;;;;6.53;67.97;98218.41;5008612;28;20198;-68
2021/12/24 08:38:27;;;;;;;7.97;5.80;;;;;;;6.11;70.24;98233.06;5009155;28;20995;-68
2021/12/24 08:41:00;;;;;;;8.17;6.47;;;;;;;6.26;68.81;98211.09;5019748;28;20225;-69
2021/12/24 08:43:27;;;;;;;13.70;6.93;;;;;;;5.80;71.77;98249.88;5016797;28;20729;-68
2021/12/24 08:45:54;;;;;;;9.53;6.70;;;;;;;6.15;70.71;98246.75;5005763;28;20205;-68
2021/12/24 08:48:28;;;;;;;8.73;6.60;;;;;;;6.23;69.94;98240.56;5013852;28;20201;-68
2021/12/24 08:50:55;;;;;;;9.47;7.03;;;;;;;6.54;68.53;98233.31;5011305;28;20537;-70
2021/12/24 08:53:23;;;;;;;15.53;11.80;;;;;;;5.53;72.42;98260.97;4999604;28;20202;-69
2021/12/24 08:55:56;;;;;;;10.80;6.90;;;;;;;5.47;72.67;98254.59;5007143;28;20218;-69
2021/12/24 08:58:23;;;;;;;9.67;7.77;;;;;;;6.44;69.41;98237.22;5009023;28;20235;-69
2021/12/24 09:00:56;;;;;;;9.93;7.17;;;;;;;6.54;69.34;98243.06;5005580;28;20225;-70
2021/12/24 09:03:23;;;;;;;8.40;6.60;;;;;;;6.73;69.39;98223.97;5009169;28;20692;-69
2021/12/24 09:05:50;;;;;;;9.23;6.60;;;;;;;5.27;75.82;98252.38;5000252;28;20214;-68
2021/12/24 09:08:24;;;;;;;9.20;6.20;;;;;;;5.33;75.29;98248.25;5019541;28;20199;-68
2021/12/24 09:10:57;;;;;;;9.40;6.20;;;;;;;5.04;76.60;98248.88;5006707;28;20225;-68
2021/12/24 09:13:24;;;;;;;8.17;6.53;;;;;;;5.71;76.27;98242.19;5009675;28;20198;-69
2021/12/24 09:15:53;;;;;;;9.03;6.47;;;;;;;6.23;73.55;98230.78;5027850;28;20215;-69
2021/12/24 09:18:27;;;;;;;10.13;8.00;;;;;;;6.24;72.63;98229.81;5005137;28;20294;-69
2021/12/24 09:20:59;;;;;;;8.97;7.17;;;;;;;6.53;71.08;98209.66;5002448;28;20709;-69
2021/12/24 09:23:26;;;;;;;12.73;8.33;;;;;;;6.50;72.32;98218.78;5013101;28;20201;-69
2021/12/24 09:26:23;;;;;;;14.33;11.07;;;;;;;6.63;71.39;98207.56;5017393;28;20202;-69
2021/12/24 09:28:50;;;;;;;14.23;9.80;;;;;;;6.44;72.86;98216.88;5003107;28;20205;-69
2021/12/24 09:31:25;;;;;;;11.97;8.80;;;;;;;6.53;72.19;98210.47;5004401;28;20245;-70
2021/12/24 09:33:53;;;;;;;11.37;8.40;;;;;;;5.10;77.24;98237.63;4999894;28;20205;-69
2021/12/24 09:36:25;;;;;;;10.03;7.63;;;;;;;5.37;75.30;98222.25;5006837;28;20203;-69
2021/12/24 09:39:01;;;;;;;10.57;7.30;;;;;;;6.74;72.46;98211.53;5012336;28;20189;-69
2021/12/24 09:41:35;;;;;;;11.00;8.80;;;;;;;7.03;70.43;98197.44;5009394;28;20637;-69
2021/12/24 09:44:03;;;;;;;11.63;9.50;;;;;;;6.97;71.32;98203.47;5021064;28;20216;-69
2021/12/24 09:46:40;;;;;;;11.93;9.10;;;;;;;7.10;70.23;98198.31;5006036;28;20231;-69
2021/12/24 09:49:14;;;;;;;13.07;8.53;;;;;;;7.05;71.22;98200.72;5010947;28;20695;-69
2021/12/24 09:51:46;;;;;;;12.87;8.87;;;;;;;6.94;70.66;98204.66;5004670;28;20681;-69
2021/12/24 09:54:16;;;;;;;12.17;9.13;;;;;;;6.70;72.53;98204.97;5007993;28;20193;-69
2021/12/24 09:56:52;;;;;;;13.63;8.67;;;;;;;5.61;74.24;98215.97;5010208;28;20193;-69
2021/12/24 09:59:19;;;;;;;13.23;8.37;;;;;;;4.51;78.69;98240.66;5004541;28;20214;-69
2021/12/24 10:01:55;;;;;;;12.47;8.70;;;;;;;6.39;73.71;98206.81;5006479;28;20230;-68
2021/12/24 10:04:31;;;;;;;11.87;8.27;;;;;;;6.61;72.74;98201.63;5022943;28;20221;-69
2021/12/24 10:07:11;;;;;;;11.07;8.30;;;;;;;6.56;73.15;98209.31;5023533;28;20203;-69
2021/12/24 10:09:47;;;;;;;12.10;7.97;;;;;;;4.84;79.45;98244.00;5023180;28;20265;-69
2021/12/24 10:12:22;;;;;;;10.77;7.87;;;;;;;6.16;76.40;98214.00;5011210;28;20205;-68
2021/12/24 10:14:57;;;;;;;11.03;7.97;;;;;;;6.60;73.28;98192.00;5005071;28;20235;-68
2021/12/24 10:17:29;;;;;;;10.60;7.77;;;;;;;5.49;78.32;98234.06;5006934;28;20200;-68
2021/12/24 10:20:14;;;;;;;9.77;7.33;;;;;;;6.63;73.41;98193.50;5006958;28;20224;-69
2021/12/24 10:22:47;;;;;;;10.97;8.37;;;;;;;6.87;72.80;98192.34;5006928;28;20681;-68
2021/12/24 10:26:10;;;;;;;10.20;7.73;;;;;;;6.44;73.62;98200.16;5089435;27;20397;-70
2021/12/24 10:28:37;;;;;;;10.87;7.73;;;;;;;6.42;74.13;98202.16;5081083;28;20222;-71
2021/12/24 10:31:07;;;;;;;15.47;8.63;;;;;;;6.73;72.70;98186.06;5078425;28;20488;-71
2021/12/24 10:33:34;;;;;;;10.43;7.70;;;;;;;6.54;73.23;98183.00;5078601;28;20219;-71
2021/12/24 10:36:02;;;;;;;10.93;8.00;;;;;;;7.17;72.02;98179.81;5076137;28;20225;-71
2021/12/24 10:38:29;;;;;;;9.83;7.53;;;;;;;6.88;72.25;98178.91;5067179;28;20224;-71
2021/12/24 10:41:04;;;;;;;9.33;7.43;;;;;;;6.80;73.48;98189.63;5076805;28;20236;-71
2021/12/24 10:43:36;;;;;;;15.13;8.57;;;;;;;6.58;73.69;98184.25;5082451;28;20226;-70
2021/12/24 10:46:16;;;;;;;12.53;9.03;;;;;;;6.31;74.82;98195.47;5065842;28;20631;-69
2021/12/24 10:49:08;;;;;;;9.97;7.77;;;;;;;6.72;74.08;98184.41;5077107;28;20237;-69
2021/12/24 10:55:03;;;;;;;12.27;8.47;;;;;;;6.81;73.90;98174.53;5067254;28;20229;-67
2021/12/24 10:57:35;;;;;;;10.10;7.57;;;;;;;6.12;76.23;98200.31;5062622;28;20223;-67
2021/12/24 11:00:15;;;;;;;14.33;9.43;;;;;;;6.34;75.74;98190.66;5060913;28;20233;-67
2021/12/24 11:03:46;;;;;;;11.57;7.00;;;;;;;4.94;81.11;98198.06;5124064;27;20583;-67
2021/12/24 11:06:15;;;;;;;10.57;8.60;;;;;;;5.41;80.11;98183.88;5104307;27;20225;-70
2021/12/24 11:08:43;;;;;;;10.27;7.63;;;;;;;5.31;80.55;98183.28;5091639;27;20222;-70
2021/12/24 11:11:17;;;;;;;10.40;8.10;;;;;;;5.87;78.90;98162.66;5086968;28;20225;-69
2021/12/24 11:13:47;;;;;;;10.07;8.30;;;;;;;6.02;77.78;98155.56;5082441;28;20600;-69
2021/12/24 11:16:22;;;;;;;9.73;6.80;;;;;;;6.17;77.13;98141.50;5072703;28;20500;-67
2021/12/24 11:19:01;;;;;;;13.00;8.40;;;;;;;6.28;76.51;98145.53;5073594;28;20230;-70
2021/12/24 11:21:31;;;;;;;8.63;6.53;;;;;;;6.15;77.52;98165.53;5078270;28;20236;-67
2021/12/24 11:23:58;;;;;;;12.70;8.80;;;;;;;6.47;76.33;98149.47;5080378;28;20223;-67
2021/12/24 11:26:28;;;;;;;10.87;8.10;;;;;;;6.70;75.83;98141.38;5082979;28;20233;-70
2021/12/24 11:28:56;;;;;;;10.33;8.53;;;;;;;6.86;75.53;98138.53;5081214;28;20544;-69
2021/12/24 11:31:25;;;;;;;10.30;8.50;;;;;;;6.75;76.11;98145.13;5075448;28;20227;-68
2021/12/24 11:33:53;;;;;;;12.13;8.63;;;;;;;6.90;75.60;98145.06;5071918;28;20229;-68
2021/12/24 11:36:23;;;;;;;11.40;8.57;;;;;;;6.66;75.36;98138.28;5082563;28;20219;-68
2021/12/24 11:38:55;;;;;;;10.17;7.23;;;;;;;6.90;75.70;98138.97;5081905;28;20226;-68
2021/12/24 11:41:26;;;;;;;13.33;8.27;;;;;;;6.88;75.38;98123.25;5083268;28;20223;-68
2021/12/24 11:43:55;;;;;;;14.53;8.83;;;;;;;7.07;75.04;98129.75;5077245;28;20245;-68
2021/12/24 11:46:25;;;;;;;12.10;9.23;;;;;;;7.16;74.33;98111.88;5071483;28;20264;-68
2021/12/24 11:48:54;;;;;;;11.30;7.83;;;;;;;6.70;75.98;98133.44;5085982;28;20222;-68
2021/12/24 11:51:27;;;;;;;12.20;8.30;;;;;;;7.30;74.47;98118.13;5093466;28;20236;-68
2021/12/24 11:54:03;;;;;;;12.57;9.00;;;;;;;7.44;73.79;98124.38;5088437;28;20226;-68
2021/12/24 11:57:00;;;;;;;9.77;7.77;;;;;;;6.95;75.33;98113.53;5089205;28;20223;-68
2021/12/24 11:59:35;;;;;;;13.27;8.10;;;;;;;6.93;75.02;98120.84;5061681;28;21871;-68
2021/12/24 12:02:02;;;;;;;15.20;8.83;;;;;;;6.73;76.26;98117.97;5087551;28;20218;-68
2021/12/24 12:04:29;;;;;;;11.20;8.20;;;;;;;6.84;76.32;98121.97;5078129;28;20225;-68
2021/12/24 12:07:16;;;;;;;12.43;8.13;;;;;;;6.49;77.28;98113.00;5091104;28;20232;-68
2021/12/24 12:09:46;;;;;;;12.50;8.33;;;;;;;6.60;77.87;98117.84;5080664;28;20227;-68
2021/12/24 12:12:16;;;;;;;11.13;8.00;;;;;;;6.19;79.60;98119.13;5072922;28;20680;-68
2021/12/24 12:14:43;;;;;;;9.47;6.87;;;;;;;5.33;83.24;98136.34;5068773;28;20229;-68
2021/12/24 12:17:22;;;;;;;10.53;7.43;;;;;;;6.29;80.01;98099.47;5068840;28;20227;-68
2021/12/24 12:19:59;;;;;;;14.60;7.80;;;;;;;6.82;77.17;98075.47;5069154;28;20612;-68
2021/12/24 12:25:12;;;;;;;10.13;6.93;;;;;;;6.84;76.73;98074.25;5058469;28;20817;-68
2021/12/24 12:27:43;;;;;;;10.20;7.50;;;;;;;7.08;76.35;98075.72;5064706;28;20223;-68
2021/12/24 12:30:48;;;;;;;11.67;8.20;;;;;;;7.33;75.49;98060.22;5070664;28;20241;-68
2021/12/24 12:33:22;;;;;;;10.93;7.73;;;;;;;7.04;76.63;98074.44;5067130;28;20740;-68
2021/12/24 12:35:53;;;;;;;9.90;7.70;;;;;;;7.06;76.50;98075.06;5069523;28;20231;-68
2021/12/24 12:38:31;;;;;;;11.90;8.23;;;;;;;7.03;76.02;98077.28;5058891;28;20230;-69
2021/12/24 12:41:35;;;;;;;10.93;7.83;;;;;;;6.84;77.31;98079.56;5064309;28;20753;-69
2021/12/24 12:44:10;;;;;;;14.73;8.00;;;;;;;7.26;76.12;98069.13;5067200;28;20254;-69
2021/12/24 12:46:40;;;;;;;10.77;8.60;;;;;;;7.23;75.82;98075.63;5068220;28;20228;-68
2021/12/24 12:49:10;;;;;;;13.63;9.40;;;;;;;7.28;75.55;98061.78;5066942;28;20860;-68
2021/12/24 12:51:49;;;;;;;16.23;12.10;;;;;;;7.32;75.06;98053.28;5060468;28;20322;-69
2021/12/24 12:54:41;;;;;;;13.37;9.50;;;;;;;5.99;80.37;98091.59;5063532;28;20226;-68
2021/12/24 12:57:29;;;;;;;10.70;7.80;;;;;;;7.23;77.35;98061.56;5043712;28;20870;-68
2021/12/24 13:00:17;;;;;;;13.33;9.87;;;;;;;7.51;75.11;98050.94;5064628;28;20580;-68
2021/12/24 13:02:56;;;;;;;16.17;8.80;;;;;;;7.29;76.25;98055.50;5068393;28;20228;-68
2021/12/24 13:05:29;;;;;;;11.70;8.50;;;;;;;6.86;78.83;98066.97;5057322;28;20233;-69
2021/12/24 13:08:00;;;;;;;12.43;8.93;;;;;;;6.88;77.03;98048.19;5066400;28;20230;-68
2021/12/24 13:10:27;;;;;;;10.63;8.80;;;;;;;7.06;77.25;98048.56;5067614;28;20249;-69
2021/12/24 13:13:03;;;;;;;12.73;8.73;;;;;;;7.47;75.71;98039.09;5067619;28;20577;-70
2021/12/24 13:15:31;;;;;;;11.47;8.27;;;;;;;7.33;76.22;98033.69;5066907;28;20254;-68
2021/12/24 13:18:03;;;;;;;11.63;8.77;;;;;;;7.39;76.53;98048.00;5061064;28;21013;-69
2021/12/24 13:22:27;;;;;;;9.67;7.37;;;;;;;7.46;75.62;98032.16;5060771;28;20231;-68
2021/12/24 13:23:37;;;;;;;11.03;8.63;;;;;;;7.73;75.39;98041.13;5062402;28;20765;-69
2021/12/24 13:26:12;;;;;;;9.17;7.70;;;;;;;7.67;75.21;98037.44;5064803;28;20707;-69
2021/12/24 13:28:59;;;;;;;11.83;8.27;;;;;;;7.64;75.80;98031.69;5069159;28;20229;-69
2021/12/24 13:31:30;;;;;;;10.23;7.27;;;;;;;7.68;75.97;98038.22;5057947;28;20258;-69
2021/12/24 13:33:58;;;;;;;11.87;8.70;;;;;;;8.01;74.71;98027.78;5063762;28;20220;-69
2021/12/24 13:36:28;;;;;;;10.30;7.90;;;;;;;8.23;73.52;98023.19;5066380;28;20702;-69
2021/12/24 13:39:19;;;;;;;14.40;8.10;;;;;;;7.40;75.95;98030.25;5067960;28;20227;-68
2021/12/24 13:41:47;;;;;;;10.87;8.23;;;;;;;7.65;76.25;98028.81;5059430;22;20259;-69